Time;durP1;ratioP1;P1;durP2;ratioP2;P2;SDS_P1;SDS_P2;PMS_P1;PMS_P2;Temp;Humidity;BMP_temperature;BMP_pressure;BME280_temperature;BME280_humidity;BME280_pressure;Samples;Min_cycle;Max_cycle;Signal;HPM_P1;HPM_P2
2023/12/23 00:02:10;;;;;;;10.80;10.50;;;8.30;99.90;;;;;;5136318;28;20216;-82
2023/12/23 00:04:37;;;;;;;10.40;10.10;;;8.10;99.90;;;;;;5133652;27;20233;-83
2023/12/23 00:07:14;;;;;;;10.40;10.10;;;8.00;99.90;;;;;;5129982;28;20229;-83
2023/12/23 00:09:41;;;;;;;10.40;10.10;;;7.90;99.90;;;;;;5129517;28;20254;-82
2023/12/23 00:12:09;;;;;;;10.27;9.97;;;7.80;99.90;;;;;;5129296;27;20229;-82
2023/12/23 00:14:37;;;;;;;10.23;9.93;;;7.70;99.90;;;;;;5128159;27;20256;-82
2023/12/23 00:17:05;;;;;;;10.37;10.07;;;7.60;99.90;;;;;;5128311;27;20240;-83
2023/12/23 00:19:34;;;;;;;10.30;10.00;;;7.50;99.90;;;;;;5117229;28;20237;-83
2023/12/23 00:22:01;;;;;;;9.60;9.30;;;7.40;99.90;;;;;;5128430;28;20220;-82
2023/12/23 00:24:31;;;;;;;10.13;9.83;;;7.20;99.90;;;;;;5136850;27;20228;-82
2023/12/23 00:26:59;;;;;;;10.30;10.00;;;7.00;99.90;;;;;;5133791;27;20217;-82
2023/12/23 00:29:26;;;;;;;10.80;10.50;;;6.90;99.90;;;;;;5119286;27;20234;-83
2023/12/23 00:31:54;;;;;;;10.23;9.93;;;6.90;99.90;;;;;;5124773;28;20232;-83
2023/12/23 00:34:21;;;;;;;10.20;9.90;;;6.80;99.90;;;;;;5108397;27;20320;-82
2023/12/23 00:36:49;;;;;;;10.10;9.80;;;6.80;99.90;;;;;;5110139;28;20237;-83
2023/12/23 00:39:16;;;;;;;10.07;9.77;;;6.80;99.90;;;;;;5117797;28;21101;-82
2023/12/23 00:41:45;;;;;;;10.10;9.80;;;6.80;99.90;;;;;;5122920;28;20227;-83
2023/12/23 00:44:15;;;;;;;10.00;9.70;;;6.70;99.90;;;;;;5129127;27;20239;-82
2023/12/23 00:46:42;;;;;;;9.80;9.50;;;6.70;99.90;;;;;;5127583;27;20309;-83
2023/12/23 00:49:10;;;;;;;9.60;9.30;;;6.70;99.90;;;;;;5127810;27;20236;-82
2023/12/23 00:51:37;;;;;;;9.60;9.30;;;6.70;99.90;;;;;;5127833;27;20235;-83
2023/12/23 00:54:05;;;;;;;9.50;9.20;;;6.60;99.90;;;;;;5121574;27;20229;-83
2023/12/23 00:56:32;;;;;;;9.60;9.30;;;6.50;99.90;;;;;;5117282;28;20244;-83
2023/12/23 00:59:01;;;;;;;9.73;9.43;;;6.60;99.90;;;;;;5124306;28;20221;-83
2023/12/23 01:01:29;;;;;;;9.70;9.40;;;6.50;99.90;;;;;;5122978;27;20225;-83
2023/12/23 01:03:56;;;;;;;9.50;9.20;;;6.60;99.90;;;;;;5115276;28;20268;-83
2023/12/23 01:06:24;;;;;;;9.70;9.40;;;6.60;99.90;;;;;;5107762;28;20237;-83
2023/12/23 01:08:51;;;;;;;9.77;9.47;;;6.50;99.90;;;;;;5107420;28;20214;-83
2023/12/23 01:11:19;;;;;;;9.70;9.40;;;6.50;99.90;;;;;;5112740;28;20228;-82
2023/12/23 01:13:49;;;;;;;9.77;9.47;;;6.50;99.90;;;;;;5119144;27;20237;-83
2023/12/23 01:16:18;;;;;;;9.53;9.23;;;6.50;99.90;;;;;;5128782;27;20232;-83
2023/12/23 01:18:46;;;;;;;9.43;9.13;;;6.50;99.90;;;;;;5119730;28;20231;-83
2023/12/23 01:21:18;;;;;;;9.67;9.37;;;6.50;99.90;;;;;;5109543;27;20217;-83
2023/12/23 01:23:45;;;;;;;9.70;9.40;;;6.50;99.90;;;;;;5108664;28;20245;-83
2023/12/23 01:26:15;;;;;;;9.77;9.47;;;6.50;99.90;;;;;;5106720;28;20245;-83
2023/12/23 01:28:42;;;;;;;9.70;9.40;;;6.50;99.90;;;;;;5106918;28;20237;-83
2023/12/23 01:31:10;;;;;;;9.90;9.60;;;6.40;99.90;;;;;;5107761;28;20225;-84
2023/12/23 01:33:39;;;;;;;9.97;9.67;;;6.40;99.90;;;;;;5107216;28;20259;-83
2023/12/23 01:36:09;;;;;;;9.90;9.60;;;6.40;99.90;;;;;;5107169;28;20235;-83
2023/12/23 01:38:41;;;;;;;9.90;9.60;;;6.40;99.90;;;;;;5116621;28;20319;-84
2023/12/23 01:41:08;;;;;;;9.90;9.60;;;6.40;99.90;;;;;;5126516;28;20247;-83
2023/12/23 01:43:36;;;;;;;10.00;9.70;;;6.40;99.90;;;;;;5126934;28;20286;-83
2023/12/23 01:46:04;;;;;;;9.77;9.47;;;6.40;99.90;;;;;;5127823;27;20240;-84
2023/12/23 01:48:36;;;;;;;9.90;9.60;;;6.40;99.90;;;;;;5133261;27;20227;-83
2023/12/23 01:51:06;;;;;;;9.93;9.63;;;6.40;99.90;;;;;;5138086;27;20224;-82
2023/12/23 01:53:35;;;;;;;9.97;9.67;;;6.30;99.90;;;;;;5141984;27;20221;-83
2023/12/23 01:56:04;;;;;;;10.10;9.80;;;6.30;99.90;;;;;;5141890;27;20255;-82
2023/12/23 01:58:31;;;;;;;10.00;9.70;;;6.30;99.90;;;;;;5140964;28;20252;-83
2023/12/23 02:00:59;;;;;;;10.20;9.90;;;6.30;99.90;;;;;;5141134;27;20196;-83
2023/12/23 02:03:28;;;;;;;10.00;9.70;;;6.20;99.90;;;;;;5141925;27;20217;-83
2023/12/23 02:05:56;;;;;;;10.10;9.80;;;6.20;99.90;;;;;;5141841;27;20217;-81
2023/12/23 02:08:25;;;;;;;10.10;9.80;;;6.20;99.90;;;;;;5142435;27;20224;-81
2023/12/23 02:11:08;;;;;;;9.97;9.67;;;6.10;99.90;;;;;;5142034;27;20255;-81
2023/12/23 02:13:44;;;;;;;9.87;9.57;;;6.00;99.90;;;;;;5135718;27;20218;-81
2023/12/23 02:16:12;;;;;;;9.93;9.63;;;6.00;99.90;;;;;;5120491;28;20232;-83
2023/12/23 02:18:40;;;;;;;10.00;9.70;;;6.00;99.90;;;;;;5121520;28;20213;-81
2023/12/23 02:21:09;;;;;;;9.90;9.60;;;6.00;99.90;;;;;;5140078;27;20213;-82
2023/12/23 02:23:37;;;;;;;9.80;9.50;;;6.00;99.90;;;;;;5142110;27;20229;-82
2023/12/23 02:26:07;;;;;;;10.10;9.80;;;6.00;99.90;;;;;;5142183;27;20232;-83
2023/12/23 02:28:36;;;;;;;9.90;9.60;;;6.00;99.90;;;;;;5141922;27;20256;-82
2023/12/23 02:31:04;;;;;;;10.40;10.10;;;5.90;99.90;;;;;;5141911;27;20209;-83
2023/12/23 02:33:32;;;;;;;10.33;10.03;;;5.90;99.90;;;;;;5142104;27;20259;-82
2023/12/23 02:36:01;;;;;;;10.67;10.37;;;5.90;99.90;;;;;;5142072;27;20212;-83
2023/12/23 02:38:30;;;;;;;10.20;9.90;;;5.90;99.90;;;;;;5137732;27;20225;-83
2023/12/23 02:40:57;;;;;;;10.00;9.70;;;5.90;99.90;;;;;;5140821;27;20221;-82
2023/12/23 02:43:24;;;;;;;10.00;9.70;;;5.90;99.90;;;;;;5140599;27;20274;-83
2023/12/23 02:45:52;;;;;;;10.07;9.77;;;5.90;99.90;;;;;;5139733;27;20235;-84
2023/12/23 02:48:21;;;;;;;10.10;9.80;;;5.90;99.90;;;;;;5132136;27;20247;-83
2023/12/23 02:50:50;;;;;;;10.30;10.00;;;5.90;99.90;;;;;;5129472;27;20272;-83
2023/12/23 02:53:18;;;;;;;10.27;9.97;;;5.90;99.90;;;;;;5128273;28;20243;-83
2023/12/23 02:55:47;;;;;;;10.23;9.93;;;5.90;99.90;;;;;;5127116;27;20224;-83
2023/12/23 02:58:15;;;;;;;10.30;10.00;;;6.00;99.90;;;;;;5126437;27;20231;-83
2023/12/23 03:00:42;;;;;;;10.50;10.20;;;6.00;99.90;;;;;;5126585;27;20213;-83
2023/12/23 03:03:09;;;;;;;10.17;9.87;;;6.00;99.90;;;;;;5126205;27;20226;-82
2023/12/23 03:05:37;;;;;;;10.70;10.40;;;6.00;99.90;;;;;;5127959;27;20316;-83
2023/12/23 03:08:05;;;;;;;10.90;10.60;;;6.00;99.90;;;;;;5127454;27;20216;-82
2023/12/23 03:10:33;;;;;;;11.10;10.70;;;6.00;99.90;;;;;;5126845;28;20225;-84
2023/12/23 03:13:02;;;;;;;10.70;10.40;;;6.00;99.90;;;;;;5124708;28;20236;-82
2023/12/23 03:15:30;;;;;;;10.70;10.40;;;6.00;99.90;;;;;;5124181;28;20243;-82
2023/12/23 03:17:57;;;;;;;10.70;10.40;;;6.10;99.90;;;;;;5127214;27;20718;-83
2023/12/23 03:20:26;;;;;;;10.60;10.30;;;6.10;99.90;;;;;;5128388;28;20212;-83
2023/12/23 03:22:54;;;;;;;10.60;10.30;;;6.00;99.90;;;;;;5128473;28;20260;-83
2023/12/23 03:25:21;;;;;;;10.60;10.30;;;6.00;99.90;;;;;;5131970;27;20228;-82
2023/12/23 03:27:48;;;;;;;10.70;10.40;;;6.00;99.90;;;;;;5134127;27;20233;-82
2023/12/23 03:30:21;;;;;;;10.73;10.43;;;6.00;99.90;;;;;;5129766;28;20225;-83
2023/12/23 03:32:51;;;;;;;10.70;10.40;;;6.00;99.90;;;;;;5128717;27;20292;-82
2023/12/23 03:35:18;;;;;;;10.47;10.17;;;6.00;99.90;;;;;;5130074;28;20271;-85
2023/12/23 03:37:45;;;;;;;10.50;10.20;;;6.00;99.90;;;;;;5135454;27;20208;-82
2023/12/23 03:40:13;;;;;;;10.40;10.10;;;6.00;99.90;;;;;;5129354;28;20284;-82
2023/12/23 03:42:41;;;;;;;10.40;10.10;;;5.90;99.90;;;;;;5129513;28;20225;-83
2023/12/23 03:45:10;;;;;;;10.60;10.30;;;5.90;99.90;;;;;;5130091;27;20238;-82
2023/12/23 03:47:40;;;;;;;10.60;10.30;;;5.90;99.90;;;;;;5128709;28;20238;-83
2023/12/23 03:50:10;;;;;;;10.40;10.10;;;5.90;99.90;;;;;;5129023;27;20275;-82
2023/12/23 03:52:37;;;;;;;10.60;10.30;;;5.90;99.90;;;;;;5128697;28;20236;-82
2023/12/23 03:55:06;;;;;;;10.50;10.20;;;5.90;99.90;;;;;;5128341;28;20254;-83
2023/12/23 03:57:33;;;;;;;10.40;10.10;;;5.90;99.90;;;;;;5128494;27;20216;-82
2023/12/23 04:00:05;;;;;;;10.50;10.20;;;6.00;99.90;;;;;;5128319;27;20220;-82
2023/12/23 04:02:32;;;;;;;10.60;10.30;;;5.90;99.90;;;;;;5128806;28;20255;-82
2023/12/23 04:05:03;;;;;;;10.50;10.20;;;5.90;99.90;;;;;;5128320;27;20229;-82
2023/12/23 04:07:30;;;;;;;10.60;10.30;;;5.90;99.90;;;;;;5127614;28;21069;-82
2023/12/23 04:10:01;;;;;;;10.50;10.20;;;5.90;99.90;;;;;;5128345;27;20213;-83
2023/12/23 04:12:36;;;;;;;10.57;10.27;;;5.90;99.90;;;;;;5128012;27;20240;-82
2023/12/23 04:15:06;;;;;;;10.90;10.60;;;5.90;99.90;;;;;;5128084;28;20237;-82
2023/12/23 04:17:35;;;;;;;11.00;10.60;;;5.90;99.90;;;;;;5127584;27;20233;-82
2023/12/23 04:20:08;;;;;;;10.50;10.20;;;6.00;99.90;;;;;;5127546;28;20237;-82
2023/12/23 04:22:47;;;;;;;10.37;10.07;;;6.00;99.90;;;;;;5127638;27;20233;-82
2023/12/23 04:25:15;;;;;;;10.57;10.27;;;6.00;99.90;;;;;;5127872;28;20254;-82
2023/12/23 04:27:42;;;;;;;10.40;10.10;;;5.90;99.90;;;;;;5126794;28;20237;-82
2023/12/23 04:30:11;;;;;;;10.60;10.30;;;5.90;99.90;;;;;;5126493;28;20224;-82
2023/12/23 04:32:41;;;;;;;10.50;10.20;;;5.90;99.90;;;;;;5127326;28;20258;-82
2023/12/23 04:35:10;;;;;;;10.60;10.30;;;5.90;99.90;;;;;;5127106;28;20228;-83
2023/12/23 04:37:41;;;;;;;10.40;10.10;;;5.90;99.90;;;;;;5126461;28;20225;-83
2023/12/23 04:40:13;;;;;;;10.37;10.07;;;5.80;99.90;;;;;;5127863;27;20293;-82
2023/12/23 04:42:40;;;;;;;10.30;10.00;;;5.80;99.90;;;;;;5127650;27;20342;-83
2023/12/23 04:45:10;;;;;;;10.27;9.97;;;5.70;99.90;;;;;;5128724;27;20296;-83
2023/12/23 04:47:38;;;;;;;10.33;10.03;;;5.70;99.90;;;;;;5126647;27;20241;-83
2023/12/23 04:50:07;;;;;;;9.97;9.67;;;5.70;99.90;;;;;;5126577;28;20225;-83
2023/12/23 04:52:38;;;;;;;10.10;9.80;;;5.70;99.90;;;;;;5127666;27;20233;-83
2023/12/23 04:55:09;;;;;;;10.00;9.70;;;5.70;99.90;;;;;;5128003;27;20228;-83
2023/12/23 04:57:38;;;;;;;10.07;9.77;;;5.70;99.90;;;;;;5131834;27;20217;-83
2023/12/23 05:00:08;;;;;;;10.03;9.73;;;5.70;99.90;;;;;;5129407;27;20213;-83
2023/12/23 05:02:35;;;;;;;10.17;9.87;;;5.70;99.90;;;;;;5128597;27;20290;-83
2023/12/23 05:05:03;;;;;;;9.83;9.53;;;5.70;99.90;;;;;;5128229;27;20225;-83
2023/12/23 05:07:31;;;;;;;9.77;9.47;;;5.70;99.90;;;;;;5128369;27;20217;-83
2023/12/23 05:10:00;;;;;;;10.13;9.83;;;5.70;99.90;;;;;;5127568;27;20229;-83
2023/12/23 05:12:28;;;;;;;10.17;9.87;;;5.70;99.90;;;;;;5127457;27;20286;-83
2023/12/23 05:14:55;;;;;;;10.00;9.70;;;5.70;99.90;;;;;;5127486;27;20280;-83
2023/12/23 05:17:24;;;;;;;10.07;9.77;;;5.70;99.90;;;;;;5127270;27;20243;-83
2023/12/23 05:19:52;;;;;;;10.03;9.73;;;5.70;99.90;;;;;;5128029;27;20217;-83
2023/12/23 05:22:19;;;;;;;10.00;9.70;;;5.70;99.90;;;;;;5127319;27;20233;-83
2023/12/23 05:24:48;;;;;;;10.00;9.70;;;5.70;99.90;;;;;;5126863;27;20233;-83
2023/12/23 05:27:17;;;;;;;10.13;9.83;;;5.80;99.90;;;;;;5126022;27;20248;-84
2023/12/23 05:29:45;;;;;;;10.10;9.80;;;5.80;99.90;;;;;;5136381;27;20216;-83
2023/12/23 05:32:12;;;;;;;10.13;9.83;;;5.90;99.90;;;;;;5136969;27;20213;-83
2023/12/23 05:34:40;;;;;;;10.20;9.90;;;5.90;99.90;;;;;;5131694;27;20234;-83
2023/12/23 05:37:13;;;;;;;10.00;9.70;;;5.90;99.90;;;;;;5129593;27;20236;-84
2023/12/23 05:39:48;;;;;;;10.73;10.32;;;5.90;99.90;;;;;;5138411;27;20389;-83
2023/12/23 05:46:00;;;;;;;10.20;9.90;;;6.00;99.90;;;;;;5103704;28;20561;-84
2023/12/23 05:48:27;;;;;;;10.03;9.73;;;6.10;99.90;;;;;;5116978;28;20293;-82
2023/12/23 05:51:07;;;;;;;10.23;9.93;;;6.10;99.90;;;;;;5116448;28;20248;-83
2023/12/23 05:53:35;;;;;;;9.90;9.60;;;6.10;99.90;;;;;;5107992;28;20244;-83
2023/12/23 05:56:05;;;;;;;10.10;9.80;;;6.20;99.90;;;;;;5106420;28;20225;-83
2023/12/23 05:58:34;;;;;;;10.00;9.70;;;6.20;99.90;;;;;;5106920;28;20252;-85
2023/12/23 06:01:22;;;;;;;10.00;9.70;;;6.30;99.90;;;;;;5112841;28;20233;-85
2023/12/23 06:04:04;;;;;;;9.80;9.50;;;6.40;99.90;;;;;;5113071;27;20237;-83
2023/12/23 06:06:43;;;;;;;9.57;9.27;;;6.40;99.90;;;;;;5120059;28;20236;-83
2023/12/23 06:09:10;;;;;;;9.67;9.37;;;6.50;99.90;;;;;;5111328;28;20240;-82
2023/12/23 06:11:38;;;;;;;9.60;9.30;;;6.60;99.90;;;;;;5119902;28;20284;-83
2023/12/23 06:14:06;;;;;;;9.50;9.20;;;6.70;99.90;;;;;;5121436;28;20228;-82
2023/12/23 06:16:40;;;;;;;9.60;9.30;;;6.70;99.90;;;;;;5120533;28;20268;-82
2023/12/23 06:19:11;;;;;;;9.70;9.40;;;6.80;99.90;;;;;;5113460;28;20295;-82
2023/12/23 06:21:45;;;;;;;9.63;9.33;;;6.80;99.90;;;;;;5115800;28;20221;-82
2023/12/23 06:24:12;;;;;;;9.70;9.40;;;6.90;99.90;;;;;;5114045;28;20266;-82
2023/12/23 06:26:40;;;;;;;9.83;9.53;;;6.90;99.90;;;;;;5124829;27;20233;-83
2023/12/23 06:29:09;;;;;;;9.97;9.67;;;6.90;99.90;;;;;;5132347;28;20252;-82
2023/12/23 06:31:36;;;;;;;10.63;10.33;;;6.90;99.90;;;;;;5123451;27;20223;-82
2023/12/23 06:34:07;;;;;;;10.30;10.00;;;7.00;99.90;;;;;;5120903;28;20233;-82
2023/12/23 06:36:35;;;;;;;10.07;9.77;;;7.00;99.90;;;;;;5120800;28;20228;-81
2023/12/23 06:39:05;;;;;;;9.67;9.37;;;7.00;99.90;;;;;;5122981;27;20225;-83
2023/12/23 06:41:34;;;;;;;10.37;10.07;;;7.00;99.90;;;;;;5122229;28;20287;-82
2023/12/23 06:44:37;;;;;;;10.40;10.10;;;7.00;99.90;;;;;;5121904;28;20233;-84
2023/12/23 06:48:01;;;;;;;10.40;10.10;;;7.00;99.90;;;;;;5123386;28;20271;-83
2023/12/23 06:51:01;;;;;;;10.20;9.90;;;7.10;99.90;;;;;;5012912;28;20232;-83
2023/12/23 06:53:28;;;;;;;10.13;9.83;;;7.10;99.90;;;;;;5060954;27;20221;-82
2023/12/23 06:55:55;;;;;;;10.50;10.20;;;7.10;99.90;;;;;;5112744;27;20233;-84
2023/12/23 06:58:25;;;;;;;10.20;9.90;;;7.00;99.90;;;;;;5124751;28;20239;-82
2023/12/23 07:00:57;;;;;;;10.20;9.90;;;7.10;99.90;;;;;;5125439;28;20232;-83
2023/12/23 07:03:28;;;;;;;10.40;10.10;;;7.00;99.90;;;;;;5124884;28;20239;-83
2023/12/23 07:05:59;;;;;;;10.23;9.93;;;7.00;99.90;;;;;;5133432;22;20260;-87
2023/12/23 07:08:26;;;;;;;10.40;10.10;;;7.00;99.90;;;;;;5108429;28;20242;-86
2023/12/23 07:11:08;;;;;;;10.30;10.00;;;7.00;99.90;;;;;;5111651;28;20237;-89
2023/12/23 07:13:37;;;;;;;10.03;9.73;;;7.00;99.90;;;;;;5110113;28;20233;-88
2023/12/23 07:19:09;;;;;;;10.10;9.80;;;7.00;99.90;;;;;;5092800;28;20229;-89
2023/12/23 07:21:40;;;;;;;10.10;9.80;;;7.00;99.90;;;;;;5088677;28;20309;-87
2023/12/23 07:24:09;;;;;;;10.47;10.17;;;7.00;99.90;;;;;;5090156;28;20226;-88
2023/12/23 07:26:44;;;;;;;10.13;9.83;;;7.00;99.90;;;;;;5092880;28;20230;-89
2023/12/23 07:32:22;;;;;;;10.80;10.50;;;7.10;99.90;;;;;;5088266;28;20230;-89
2023/12/23 07:34:52;;;;;;;11.00;10.70;;;7.10;99.90;;;;;;5095025;28;20395;-89
2023/12/23 07:37:30;;;;;;;10.60;10.30;;;7.10;99.90;;;;;;5106859;28;20213;-89
2023/12/23 07:39:58;;;;;;;10.00;9.70;;;7.20;99.90;;;;;;5096946;28;20233;-88
2023/12/23 07:42:28;;;;;;;10.27;9.97;;;7.20;99.90;;;;;;5097297;28;20228;-85
2023/12/23 07:44:54;;;;;;;10.10;9.80;;;7.20;99.90;;;;;;5092380;28;20234;-86
2023/12/23 07:50:23;;;;;;;10.13;9.83;;;7.20;99.90;;;;;;5110342;28;20213;-86
2023/12/23 07:52:53;;;;;;;10.20;9.90;;;7.20;99.90;;;;;;5108774;28;20214;-88
2023/12/23 07:55:22;;;;;;;10.07;9.77;;;7.20;99.90;;;;;;5109018;28;20263;-88
2023/12/23 07:57:53;;;;;;;9.87;9.57;;;7.20;99.90;;;;;;5109415;28;20233;-84
2023/12/23 08:00:22;;;;;;;10.23;9.93;;;7.20;99.90;;;;;;5109633;28;20256;-85
2023/12/23 08:05:43;;;;;;;10.00;9.70;;;7.20;99.90;;;;;;5111558;28;20229;-89
2023/12/23 08:10:57;;;;;;;10.30;10.00;;;7.20;99.90;;;;;;5112261;28;20225;-88
2023/12/23 08:13:25;;;;;;;9.73;9.43;;;7.20;99.90;;;;;;5111820;28;20214;-88
2023/12/23 08:15:53;;;;;;;9.53;9.23;;;7.30;99.90;;;;;;5111557;28;20221;-88
2023/12/23 08:21:37;;;;;;;9.80;9.50;;;7.20;99.90;;;;;;5037728;27;4862284;-89
2023/12/23 08:26:52;;;;;;;9.67;9.37;;;7.30;99.90;;;;;;5168932;27;20211;-88
2023/12/23 08:29:24;;;;;;;10.10;9.80;;;7.30;99.90;;;;;;5170031;27;20227;-88
2023/12/23 08:31:51;;;;;;;10.30;10.00;;;7.30;99.90;;;;;;5170054;27;20230;-87
2023/12/23 08:34:29;;;;;;;10.30;10.00;;;7.40;99.90;;;;;;5168761;27;20227;-88
2023/12/23 08:37:03;;;;;;;9.93;9.63;;;7.40;99.90;;;;;;5151384;27;20223;-87
2023/12/23 08:42:16;;;;;;;9.40;9.10;;;7.40;99.90;;;;;;5166813;27;20219;-86
2023/12/23 08:44:46;;;;;;;9.37;9.07;;;7.50;99.90;;;;;;5167052;27;20256;-87
2023/12/23 08:47:14;;;;;;;8.67;8.47;;;7.50;99.90;;;;;;5170133;27;20246;-89
2023/12/23 08:52:40;;;;;;;9.37;9.07;;;7.50;99.90;;;;;;5174376;27;20195;-87
2023/12/23 08:55:14;;;;;;;9.10;8.80;;;7.50;99.90;;;;;;5174198;27;20226;-88
2023/12/23 08:57:47;;;;;;;8.63;8.43;;;7.60;99.90;;;;;;5174811;27;20227;-86
2023/12/23 09:00:18;;;;;;;8.80;8.60;;;7.60;99.90;;;;;;5152838;27;20296;-87
2023/12/23 09:05:42;;;;;;;9.30;9.00;;;7.70;99.90;;;;;;5168717;27;20239;-86
2023/12/23 09:11:00;;;;;;;9.43;9.13;;;7.70;99.90;;;;;;5167045;27;20204;-87
2023/12/23 09:13:31;;;;;;;9.43;9.13;;;7.70;99.90;;;;;;5167889;27;20257;-88
2023/12/23 09:16:09;;;;;;;9.27;8.97;;;7.70;99.90;;;;;;5168491;27;20266;-87
2023/12/23 09:18:37;;;;;;;9.80;9.50;;;7.80;99.90;;;;;;5171904;27;20228;-87
2023/12/23 09:21:09;;;;;;;9.60;9.30;;;7.80;99.90;;;;;;5172304;27;20276;-86
2023/12/23 09:23:44;;;;;;;9.90;9.60;;;7.80;99.90;;;;;;5169532;27;20229;-86
2023/12/23 09:26:24;;;;;;;9.60;9.30;;;7.80;99.90;;;;;;5174577;27;20239;-84
2023/12/23 09:28:53;;;;;;;9.50;9.20;;;7.80;99.90;;;;;;5170223;27;20279;-87
2023/12/23 09:31:24;;;;;;;9.20;8.90;;;7.80;99.90;;;;;;5162838;27;20901;-87
2023/12/23 09:34:00;;;;;;;9.03;8.73;;;7.80;99.90;;;;;;5154190;27;20281;-88
2023/12/23 09:36:30;;;;;;;9.23;8.93;;;7.80;99.90;;;;;;5153544;27;20232;-89
2023/12/23 09:39:08;;;;;;;9.00;8.70;;;7.70;99.90;;;;;;5135904;27;20216;-87
2023/12/23 09:41:38;;;;;;;9.30;9.00;;;7.70;99.90;;;;;;5153938;27;20215;-88
2023/12/23 09:44:08;;;;;;;9.30;9.00;;;7.70;99.90;;;;;;5153530;27;20273;-88
2023/12/23 09:49:32;;;;;;;8.77;8.57;;;7.70;99.90;;;;;;5154297;27;20220;-90
2023/12/23 09:57:36;;;;;;;9.10;8.80;;;7.70;99.90;;;;;;5157231;27;20224;-90
2023/12/23 10:00:05;;;;;;;9.63;9.33;;;7.60;99.90;;;;;;5160627;27;20217;-90
2023/12/23 10:02:34;;;;;;;9.80;9.50;;;7.70;99.90;;;;;;5162556;27;20294;-91
2023/12/23 10:05:05;;;;;;;8.97;8.70;;;7.60;99.90;;;;;;5154942;27;20236;-89
2023/12/23 10:10:39;;;;;;;8.80;8.60;;;7.60;99.90;;;;;;5153838;27;20242;-89
2023/12/23 10:13:09;;;;;;;9.07;8.77;;;7.70;99.90;;;;;;5155940;27;20228;-89
2023/12/23 10:18:49;;;;;;;9.33;9.03;;;7.70;99.90;;;;;;5390021;22;20238;-88
2023/12/23 10:24:11;;;;;;;9.50;9.20;;;7.80;99.90;;;;;;5089629;28;20202;-90
2023/12/23 10:26:44;;;;;;;9.27;8.97;;;7.80;99.90;;;;;;5091851;28;21105;-89
2023/12/23 10:35:24;;;;;;;9.90;9.60;;;8.00;99.90;;;;;;5088639;28;20294;-89
2023/12/23 10:38:01;;;;;;;9.67;9.37;;;8.00;99.90;;;;;;5091421;28;20229;-89
2023/12/23 10:40:30;;;;;;;9.80;9.50;;;8.00;99.90;;;;;;5091167;28;20233;-89
2023/12/23 10:48:35;;;;;;;9.90;9.60;;;8.10;99.90;;;;;;5090882;28;20225;-90
2023/12/23 10:51:05;;;;;;;9.93;9.63;;;8.10;99.90;;;;;;5091630;28;20233;-90
2023/12/23 10:53:33;;;;;;;9.63;9.33;;;8.10;99.90;;;;;;5092031;28;20226;-89
2023/12/23 10:56:02;;;;;;;9.97;9.67;;;8.10;99.90;;;;;;5073603;28;20253;-89
2023/12/23 11:01:21;;;;;;;10.07;9.77;;;8.20;99.90;;;;;;5089855;28;20235;-90
2023/12/23 11:17:49;;;;;;;10.33;10.03;;;8.20;99.90;;;;;;5091524;28;20256;-91
2023/12/23 11:26:42;;;;;;;10.30;10.00;;;8.20;99.90;;;;;;5096570;28;20229;-90
2023/12/23 11:40:41;;;;;;;10.40;10.10;;;8.10;99.90;;;;;;5168606;27;20221;-89
2023/12/23 11:43:15;;;;;;;10.40;10.10;;;8.20;99.90;;;;;;5169332;27;20238;-88
2023/12/23 11:45:44;;;;;;;10.60;10.30;;;8.10;99.90;;;;;;5168717;27;20239;-90
2023/12/23 11:48:14;;;;;;;10.37;10.07;;;8.10;99.90;;;;;;5168527;27;20272;-91
2023/12/23 11:56:19;;;;;;;10.57;10.27;;;8.10;99.90;;;;;;5169795;27;20234;-91
2023/12/23 11:58:48;;;;;;;10.37;10.07;;;8.10;99.90;;;;;;5168489;27;20275;-88
2023/12/23 12:01:19;;;;;;;10.30;10.00;;;8.10;99.90;;;;;;5169145;27;20286;-88
2023/12/23 12:03:54;;;;;;;10.57;10.27;;;8.10;99.90;;;;;;5173217;27;20215;-88
2023/12/23 12:09:13;;;;;;;10.13;9.83;;;8.10;99.90;;;;;;5170386;27;20265;-88
2023/12/23 12:11:41;;;;;;;10.27;9.97;;;8.10;99.90;;;;;;5171829;27;20216;-89
2023/12/23 12:14:14;;;;;;;10.30;10.00;;;8.10;99.90;;;;;;5168097;27;20226;-89
2023/12/23 12:16:56;;;;;;;10.20;9.90;;;8.10;99.90;;;;;;5168684;27;20253;-91
2023/12/23 12:19:26;;;;;;;10.70;10.40;;;8.10;99.90;;;;;;5168333;27;20232;-91
2023/12/23 12:24:42;;;;;;;10.40;10.10;;;8.20;99.90;;;;;;5174345;27;20254;-89
2023/12/23 12:27:14;;;;;;;10.53;10.23;;;8.20;99.90;;;;;;5171701;27;20227;-89
2023/12/23 12:32:29;;;;;;;10.30;10.00;;;8.20;99.90;;;;;;5168642;27;20230;-89
2023/12/23 12:54:42;;;;;;;10.77;10.47;;;8.30;99.90;;;;;;5111608;28;20222;-90
2023/12/23 13:07:01;;;;;;;9.93;9.63;;;8.10;99.90;;;;;;5125439;22;20237;-82
2023/12/23 13:09:31;;;;;;;10.10;9.80;;;8.10;99.90;;;;;;5087828;28;20280;-82
2023/12/23 13:11:59;;;;;;;10.30;10.00;;;8.10;99.90;;;;;;5092022;28;20703;-80
2023/12/23 13:14:26;;;;;;;10.30;10.00;;;8.10;99.90;;;;;;5098510;28;20245;-82
2023/12/23 13:16:55;;;;;;;10.20;9.90;;;8.10;99.90;;;;;;5088232;28;20292;-81
2023/12/23 13:19:23;;;;;;;10.00;9.70;;;8.10;99.90;;;;;;5090612;28;20223;-81
2023/12/23 13:21:50;;;;;;;10.60;10.30;;;8.10;99.90;;;;;;5086543;28;20226;-81
2023/12/23 13:24:18;;;;;;;10.27;9.97;;;8.10;99.90;;;;;;5097387;28;20218;-82
2023/12/23 13:26:45;;;;;;;10.13;9.83;;;8.10;99.90;;;;;;5100415;28;20260;-81
2023/12/23 13:29:15;;;;;;;10.00;9.70;;;8.10;99.90;;;;;;5101006;28;20226;-81
2023/12/23 13:31:42;;;;;;;10.30;10.00;;;8.20;99.90;;;;;;5100008;28;20222;-81
2023/12/23 13:34:12;;;;;;;9.70;9.40;;;8.20;99.90;;;;;;5100697;28;20234;-81
2023/12/23 13:36:40;;;;;;;9.87;9.57;;;8.20;99.90;;;;;;5101115;28;20273;-81
2023/12/23 13:39:10;;;;;;;9.20;8.90;;;8.20;99.90;;;;;;5101221;28;20244;-80
2023/12/23 13:41:37;;;;;;;9.90;9.60;;;8.20;99.90;;;;;;5100126;28;20234;-81
2023/12/23 13:44:06;;;;;;;9.90;9.60;;;8.20;99.90;;;;;;5099935;28;20226;-81
2023/12/23 13:46:33;;;;;;;9.90;9.60;;;8.20;99.90;;;;;;5100194;28;20226;-81
2023/12/23 13:49:01;;;;;;;9.93;9.63;;;8.20;99.90;;;;;;5100907;28;20214;-81
2023/12/23 13:51:30;;;;;;;10.00;9.70;;;8.30;99.90;;;;;;5101176;28;20218;-82
2023/12/23 13:53:57;;;;;;;10.50;10.20;;;8.30;99.90;;;;;;5100636;28;20228;-82
2023/12/23 13:56:25;;;;;;;9.40;9.10;;;8.30;99.90;;;;;;5099320;28;20222;-81
2023/12/23 13:58:52;;;;;;;9.97;9.67;;;8.30;99.90;;;;;;5100352;28;20309;-81
2023/12/23 14:01:20;;;;;;;10.30;10.00;;;8.30;99.90;;;;;;5100193;28;20206;-81
2023/12/23 14:03:47;;;;;;;10.40;10.10;;;8.40;99.90;;;;;;5100526;28;20222;-82
2023/12/23 14:06:14;;;;;;;10.20;9.90;;;8.30;99.90;;;;;;5099751;28;20246;-82
2023/12/23 14:08:44;;;;;;;10.20;9.90;;;8.40;99.90;;;;;;5100022;28;20230;-82
2023/12/23 14:11:13;;;;;;;9.90;9.60;;;8.40;99.90;;;;;;5097563;28;20226;-81
2023/12/23 14:13:40;;;;;;;10.10;9.80;;;8.40;99.90;;;;;;5089401;28;20281;-81
2023/12/23 14:16:09;;;;;;;9.53;9.23;;;8.40;99.90;;;;;;5085643;28;20260;-82
2023/12/23 14:18:36;;;;;;;9.57;9.27;;;8.40;99.90;;;;;;5085847;28;20260;-81
2023/12/23 14:21:07;;;;;;;9.70;9.40;;;8.40;99.90;;;;;;5084865;28;20233;-81
2023/12/23 14:23:35;;;;;;;9.50;9.20;;;8.40;99.90;;;;;;5085008;28;20321;-82
2023/12/23 14:26:06;;;;;;;9.43;9.13;;;8.40;99.90;;;;;;5084392;28;20317;-82
2023/12/23 14:28:35;;;;;;;9.60;9.30;;;8.40;99.90;;;;;;5083694;28;20320;-81
2023/12/23 14:31:12;;;;;;;9.50;9.20;;;8.40;99.90;;;;;;5084912;28;20245;-82
2023/12/23 14:33:39;;;;;;;9.40;9.10;;;8.40;99.90;;;;;;5087086;28;20234;-81
2023/12/23 14:36:08;;;;;;;9.60;9.30;;;8.40;99.90;;;;;;5084715;28;20234;-83
2023/12/23 14:38:35;;;;;;;9.37;9.07;;;8.40;99.90;;;;;;5083972;28;20316;-81
2023/12/23 14:41:05;;;;;;;9.73;9.43;;;8.40;99.90;;;;;;5084496;28;20226;-81
2023/12/23 14:43:32;;;;;;;9.70;9.40;;;8.40;99.90;;;;;;5084072;28;20226;-81
2023/12/23 14:46:00;;;;;;;9.80;9.50;;;8.40;99.90;;;;;;5083963;28;20230;-81
2023/12/23 14:48:27;;;;;;;9.90;9.60;;;8.40;99.90;;;;;;5083847;28;20227;-81
2023/12/23 14:50:55;;;;;;;9.73;9.43;;;8.40;99.90;;;;;;5084409;28;20226;-83
2023/12/23 14:53:22;;;;;;;10.03;9.73;;;8.30;99.90;;;;;;5084292;28;20234;-81
2023/12/23 14:55:50;;;;;;;9.93;9.63;;;8.30;99.90;;;;;;5084029;28;20298;-82
2023/12/23 14:58:18;;;;;;;9.90;9.60;;;8.30;99.90;;;;;;5083105;28;20287;-82
2023/12/23 15:00:46;;;;;;;9.60;9.30;;;8.30;99.90;;;;;;5083690;28;20214;-82
2023/12/23 15:03:14;;;;;;;9.80;9.50;;;8.30;99.90;;;;;;5084408;28;20230;-82
2023/12/23 15:05:42;;;;;;;9.30;9.00;;;8.30;99.90;;;;;;5084218;28;20229;-82
2023/12/23 15:08:09;;;;;;;9.60;9.30;;;8.30;99.90;;;;;;5082761;28;20238;-84
2023/12/23 15:10:39;;;;;;;9.50;9.20;;;8.30;99.90;;;;;;5083677;28;20236;-83
2023/12/23 15:13:11;;;;;;;9.47;9.17;;;8.30;99.90;;;;;;5083440;28;20318;-82
2023/12/23 15:15:42;;;;;;;9.60;9.30;;;8.30;99.90;;;;;;5083786;28;20230;-82
2023/12/23 15:18:09;;;;;;;9.60;9.30;;;8.30;99.90;;;;;;5082556;28;20238;-81
2023/12/23 15:20:37;;;;;;;9.77;9.47;;;8.30;99.90;;;;;;5082868;28;20257;-81
2023/12/23 15:23:04;;;;;;;9.90;9.60;;;8.30;99.90;;;;;;5082855;28;20237;-83
2023/12/23 15:25:32;;;;;;;9.80;9.50;;;8.30;99.90;;;;;;5082238;28;20231;-82